GEC8469 OBBI-EDDP
Flight info
| Callsign | GEC8469 |
|---|---|
| Flight time | N/A |
| Altitude | 40000 |
| Route | BHR B457 NARMI N697 HIL T540 ENABI L550 NOVPA J981 DATOK L550 GENIV L324 LAKTO DCT OTHON UN128 LMO DCT EVIVI L863 EDIKA DCT OKANA DCT NEPOS DCT IRGOR DCT TONDO DCT ULZAK DCT PEPIK DCT ODLIV DCT LEGAZ DCT BEFRE DCT IVQOQ/N0491F300 T951 YAWOY YAWOY1R |
| Aircraft | MD11/H-SDE1E2E3FGHIJ2J3J4J5M1RWXY/LB1D1 |
Departure
| Time | 2026-04-28 09:49 |
|---|---|
| Airport | Bahrain International Airport (OBBI) |
Arrival
| Time | N/A |
|---|---|
| Airport | Leipzig/Halle Airport (EDDP) |
| Time | Latitude | Longitude | Altitude | Speed | Heading |
|---|---|---|---|---|---|
| 2026-04-28 09:02 | 26.27423 | 50.62065 | 31 ft | 0 kts | 211° |
| 2026-04-28 09:38 | 26.27427 | 50.62068 | 28 ft | 3 kts | 212° |
| 2026-04-28 09:39 | 26.27448 | 50.62085 | 28 ft | 4 kts | 221° |
| 2026-04-28 09:39 | 26.27467 | 50.62102 | 29 ft | 4 kts | 193° |
| 2026-04-28 09:39 | 26.27487 | 50.62104 | 27 ft | 4 kts | 163° |
| 2026-04-28 09:39 | 26.27503 | 50.62093 | 27 ft | 4 kts | 117° |
| 2026-04-28 09:40 | 26.27512 | 50.62073 | 27 ft | 0 kts | 123° |
| 2026-04-28 09:43 | 26.27509 | 50.62079 | 28 ft | 4 kts | 123° |
| 2026-04-28 09:44 | 26.27485 | 50.62134 | 26 ft | 11 kts | 101° |
| 2026-04-28 09:44 | 26.27525 | 50.62204 | 28 ft | 7 kts | 52° |
| 2026-04-28 09:44 | 26.27519 | 50.62266 | 28 ft | 14 kts | 112° |
| 2026-04-28 09:44 | 26.27449 | 50.62393 | 29 ft | 23 kts | 123° |
| 2026-04-28 09:45 | 26.27347 | 50.62566 | 29 ft | 30 kts | 123° |
| 2026-04-28 09:45 | 26.27232 | 50.62765 | 29 ft | 31 kts | 122° |
| 2026-04-28 09:45 | 26.27108 | 50.62965 | 27 ft | 32 kts | 125° |
| 2026-04-28 09:45 | 26.26991 | 50.63166 | 27 ft | 30 kts | 123° |
| 2026-04-28 09:46 | 26.26878 | 50.63361 | 27 ft | 29 kts | 123° |
| 2026-04-28 09:46 | 26.26770 | 50.63548 | 27 ft | 28 kts | 122° |
| 2026-04-28 09:46 | 26.26669 | 50.63723 | 28 ft | 26 kts | 122° |
| 2026-04-28 09:46 | 26.26574 | 50.63889 | 29 ft | 25 kts | 122° |
| 2026-04-28 09:47 | 26.26476 | 50.64060 | 27 ft | 28 kts | 122° |
| 2026-04-28 09:47 | 26.26363 | 50.64256 | 27 ft | 31 kts | 123° |
| 2026-04-28 09:47 | 26.26244 | 50.64462 | 27 ft | 31 kts | 122° |
| 2026-04-28 09:47 | 26.26132 | 50.64658 | 27 ft | 30 kts | 122° |
| 2026-04-28 09:48 | 26.26059 | 50.64785 | 28 ft | 27 kts | 122° |
| 2026-04-28 09:48 | 26.26079 | 50.64986 | 29 ft | 17 kts | 38° |
| 2026-04-28 09:48 | 26.26135 | 50.64996 | 29 ft | 4 kts | 334° |
| 2026-04-28 09:48 | 26.26160 | 50.64958 | 28 ft | 17 kts | 302° |
| 2026-04-28 09:49 | 26.26425 | 50.64501 | 28 ft | 128 kts | 303° |
| 2026-04-28 09:49 | 26.26824 | 50.63816 | 91 ft | 183 kts | 303° |
| 2026-04-28 09:49 | 26.27522 | 50.62590 | 1275 ft | 180 kts | 300° |
| 2026-04-28 09:49 | 26.28356 | 50.60969 | 3176 ft | 186 kts | 297° |
| 2026-04-28 09:50 | 26.28889 | 50.59648 | 4362 ft | 194 kts | 280° |
| 2026-04-28 09:50 | 26.28893 | 50.57984 | 4712 ft | 238 kts | 261° |
| 2026-04-28 09:50 | 26.28634 | 50.56036 | 4976 ft | 265 kts | 262° |
| 2026-04-28 09:50 | 26.28472 | 50.53993 | 6185 ft | 264 kts | 264° |
| 2026-04-28 09:51 | 26.28427 | 50.52634 | 7126 ft | 264 kts | 266° |
| 2026-04-28 09:51 | 26.28436 | 50.50586 | 8604 ft | 265 kts | 268° |
| 2026-04-28 09:51 | 26.28519 | 50.48550 | 10098 ft | 263 kts | 270° |
| 2026-04-28 09:51 | 26.28650 | 50.46386 | 10591 ft | 302 kts | 272° |
| 2026-04-28 09:52 | 26.28850 | 50.43886 | 10920 ft | 338 kts | 274° |
| 2026-04-28 09:52 | 26.29105 | 50.41257 | 12060 ft | 345 kts | 275° |
| 2026-04-28 09:52 | 26.29389 | 50.38575 | 13217 ft | 352 kts | 276° |
| 2026-04-28 09:52 | 26.29694 | 50.35848 | 14297 ft | 358 kts | 276° |
| 2026-04-28 09:53 | 26.30139 | 50.33089 | 15252 ft | 365 kts | 283° |
| 2026-04-28 09:53 | 26.30922 | 50.30375 | 16233 ft | 372 kts | 288° |
| 2026-04-28 09:53 | 26.31847 | 50.27705 | 17213 ft | 378 kts | 289° |
| 2026-04-28 09:53 | 26.32850 | 50.24958 | 18203 ft | 385 kts | 290° |
| 2026-04-28 09:54 | 26.33873 | 50.22178 | 18974 ft | 391 kts | 289° |
| 2026-04-28 09:54 | 26.34904 | 50.19354 | 19729 ft | 396 kts | 289° |
| 2026-04-28 09:54 | 26.35943 | 50.16482 | 20474 ft | 401 kts | 289° |
| 2026-04-28 09:54 | 26.36987 | 50.13576 | 21195 ft | 407 kts | 288° |
| 2026-04-28 09:55 | 26.38041 | 50.10626 | 21927 ft | 412 kts | 288° |
| 2026-04-28 09:55 | 26.39106 | 50.07636 | 22749 ft | 416 kts | 288° |
| 2026-04-28 09:55 | 26.40162 | 50.04662 | 23521 ft | 422 kts | 287° |
| 2026-04-28 09:55 | 26.41248 | 50.01603 | 24273 ft | 424 kts | 287° |
| 2026-04-28 09:56 | 26.42337 | 49.98534 | 25118 ft | 426 kts | 287° |
| 2026-04-28 09:56 | 26.43427 | 49.95462 | 26036 ft | 425 kts | 286° |
| 2026-04-28 09:56 | 26.44516 | 49.92392 | 26954 ft | 426 kts | 286° |
| 2026-04-28 09:56 | 26.45605 | 49.89315 | 27771 ft | 429 kts | 285° |
| 2026-04-28 09:57 | 26.46704 | 49.86203 | 28576 ft | 431 kts | 285° |
| 2026-04-28 09:57 | 26.47794 | 49.83116 | 29388 ft | 434 kts | 285° |
| 2026-04-28 09:57 | 26.48904 | 49.79969 | 30092 ft | 437 kts | 285° |
| 2026-04-28 09:57 | 26.50013 | 49.76804 | 30615 ft | 439 kts | 284° |
| 2026-04-28 09:58 | 26.50997 | 49.73584 | 31163 ft | 439 kts | 281° |
| 2026-04-28 09:58 | 26.51858 | 49.70325 | 31785 ft | 436 kts | 280° |
| 2026-04-28 09:58 | 26.52662 | 49.67081 | 32511 ft | 431 kts | 280° |
| 2026-04-28 09:58 | 26.53444 | 49.63865 | 33267 ft | 427 kts | 280° |
| 2026-04-28 09:59 | 26.54219 | 49.60690 | 34036 ft | 422 kts | 280° |
| 2026-04-28 09:59 | 26.54993 | 49.57536 | 34562 ft | 421 kts | 280° |
| 2026-04-28 09:59 | 26.55772 | 49.54379 | 35032 ft | 422 kts | 280° |
| 2026-04-28 09:59 | 26.56542 | 49.51269 | 35497 ft | 422 kts | 280° |
| 2026-04-28 10:00 | 26.57327 | 49.48109 | 35923 ft | 422 kts | 281° |
| 2026-04-28 10:00 | 26.58109 | 49.44960 | 36355 ft | 421 kts | 281° |
| 2026-04-28 10:00 | 26.58895 | 49.41800 | 36768 ft | 421 kts | 281° |
| 2026-04-28 10:00 | 26.59677 | 49.38651 | 37178 ft | 421 kts | 281° |
| 2026-04-28 10:01 | 26.60457 | 49.35505 | 37598 ft | 421 kts | 281° |
| 2026-04-28 10:01 | 26.61239 | 49.32354 | 38062 ft | 419 kts | 281° |
| 2026-04-28 10:01 | 26.62015 | 49.29218 | 38471 ft | 418 kts | 281° |
| 2026-04-28 10:01 | 26.62780 | 49.26129 | 38784 ft | 418 kts | 281° |
| 2026-04-28 10:02 | 26.63553 | 49.22999 | 39083 ft | 418 kts | 281° |
| 2026-04-28 10:02 | 26.64325 | 49.19865 | 39373 ft | 418 kts | 281° |
| 2026-04-28 10:02 | 26.65098 | 49.16731 | 39664 ft | 418 kts | 281° |
| 2026-04-28 10:02 | 26.65870 | 49.13594 | 39900 ft | 420 kts | 281° |
| 2026-04-28 10:03 | 26.67416 | 49.07304 | 39967 ft | 420 kts | 281° |
| 2026-04-28 10:03 | 26.68955 | 49.01030 | 39979 ft | 421 kts | 281° |
| 2026-04-28 10:04 | 26.70502 | 48.94714 | 39986 ft | 421 kts | 281° |
| 2026-04-28 10:04 | 26.72036 | 48.88440 | 39977 ft | 419 kts | 281° |
| 2026-04-28 10:05 | 26.73561 | 48.82130 | 39977 ft | 419 kts | 280° |
| 2026-04-28 10:05 | 26.75066 | 48.75880 | 39976 ft | 419 kts | 281° |
| 2026-04-28 10:06 | 26.76423 | 48.69566 | 39976 ft | 415 kts | 273° |
| 2026-04-28 10:06 | 26.76548 | 48.63160 | 39977 ft | 412 kts | 265° |
| 2026-04-28 10:07 | 26.76282 | 48.56763 | 39974 ft | 412 kts | 265° |
| 2026-04-28 10:07 | 26.76049 | 48.50403 | 39975 ft | 412 kts | 265° |
| 2026-04-28 10:08 | 26.75860 | 48.43998 | 39980 ft | 412 kts | 266° |
| 2026-04-28 10:08 | 26.75685 | 48.37606 | 39982 ft | 410 kts | 266° |
| 2026-04-28 10:09 | 26.75507 | 48.31221 | 39977 ft | 410 kts | 266° |
| 2026-04-28 10:09 | 26.75327 | 48.24845 | 39978 ft | 410 kts | 266° |
| 2026-04-28 10:10 | 26.75149 | 48.18510 | 39982 ft | 411 kts | 266° |
| 2026-04-28 10:10 | 26.74968 | 48.12123 | 39982 ft | 411 kts | 266° |
| 2026-04-28 10:11 | 26.74784 | 48.05742 | 39979 ft | 411 kts | 266° |
| 2026-04-28 10:11 | 26.74598 | 47.99359 | 39982 ft | 410 kts | 265° |
| 2026-04-28 10:12 | 26.74410 | 47.93016 | 39986 ft | 410 kts | 265° |
| 2026-04-28 10:12 | 26.74334 | 47.86635 | 39985 ft | 411 kts | 269° |
| 2026-04-28 10:13 | 26.74615 | 47.80238 | 39985 ft | 411 kts | 270° |
| 2026-04-28 10:13 | 26.74962 | 47.73850 | 39989 ft | 412 kts | 270° |
| 2026-04-28 10:14 | 26.75295 | 47.67457 | 39993 ft | 412 kts | 270° |
| 2026-04-28 10:14 | 26.75611 | 47.61112 | 39994 ft | 412 kts | 270° |
| 2026-04-28 10:15 | 26.75925 | 47.54710 | 39998 ft | 412 kts | 270° |
| 2026-04-28 10:15 | 26.76234 | 47.48313 | 39998 ft | 412 kts | 270° |
| 2026-04-28 10:16 | 26.76541 | 47.41905 | 40013 ft | 412 kts | 270° |
| 2026-04-28 10:16 | 26.77104 | 47.35513 | 40013 ft | 415 kts | 274° |
| 2026-04-28 10:17 | 26.78066 | 47.29179 | 40036 ft | 416 kts | 276° |
| 2026-04-28 10:17 | 26.79077 | 47.22838 | 40015 ft | 413 kts | 276° |
| 2026-04-28 10:18 | 26.80064 | 47.16504 | 40010 ft | 413 kts | 275° |
| 2026-04-28 10:18 | 26.81036 | 47.10157 | 40012 ft | 414 kts | 275° |
| 2026-04-28 10:19 | 26.81997 | 47.03851 | 40025 ft | 414 kts | 275° |
| 2026-04-28 10:19 | 26.82961 | 46.97496 | 40022 ft | 414 kts | 275° |
| 2026-04-28 10:20 | 26.83922 | 46.91149 | 40027 ft | 413 kts | 275° |
| 2026-04-28 10:20 | 26.84879 | 46.84810 | 40025 ft | 412 kts | 275° |
| 2026-04-28 10:21 | 26.85823 | 46.78534 | 40027 ft | 411 kts | 275° |
| 2026-04-28 10:21 | 26.86771 | 46.72214 | 40030 ft | 411 kts | 275° |
| 2026-04-28 10:22 | 26.87714 | 46.65899 | 40026 ft | 411 kts | 275° |
| 2026-04-28 10:22 | 26.88656 | 46.59577 | 40035 ft | 411 kts | 275° |
| 2026-04-28 10:23 | 26.89588 | 46.53301 | 40033 ft | 411 kts | 275° |
| 2026-04-28 10:23 | 26.90523 | 46.46977 | 40037 ft | 411 kts | 275° |
| 2026-04-28 10:24 | 26.91436 | 46.40666 | 40047 ft | 409 kts | 275° |
| 2026-04-28 10:24 | 26.92356 | 46.34378 | 40043 ft | 409 kts | 275° |
| 2026-04-28 10:25 | 26.93285 | 46.28094 | 40046 ft | 409 kts | 275° |
| 2026-04-28 10:25 | 26.94208 | 46.21850 | 40048 ft | 409 kts | 275° |
| 2026-04-28 10:26 | 26.95135 | 46.15563 | 40040 ft | 409 kts | 275° |
| 2026-04-28 10:26 | 26.96061 | 46.09265 | 40047 ft | 410 kts | 275° |
| 2026-04-28 10:27 | 26.96985 | 46.02959 | 40057 ft | 409 kts | 275° |
| 2026-04-28 10:27 | 26.97896 | 45.96731 | 40044 ft | 407 kts | 275° |
| 2026-04-28 10:28 | 26.98810 | 45.90449 | 40046 ft | 408 kts | 275° |
| 2026-04-28 10:29 | 27.00177 | 45.81022 | 40048 ft | 408 kts | 275° |
| 2026-04-28 10:29 | 27.01084 | 45.74739 | 40048 ft | 409 kts | 275° |
| 2026-04-28 10:30 | 27.01990 | 45.68440 | 40049 ft | 409 kts | 275° |
| 2026-04-28 10:30 | 27.02888 | 45.62188 | 40068 ft | 408 kts | 275° |
| 2026-04-28 10:31 | 27.03781 | 45.55915 | 40053 ft | 407 kts | 275° |
| 2026-04-28 10:31 | 27.04659 | 45.49644 | 40056 ft | 407 kts | 275° |
| 2026-04-28 10:32 | 27.05509 | 45.43369 | 40057 ft | 406 kts | 274° |
| 2026-04-28 10:32 | 27.06227 | 45.37120 | 40045 ft | 406 kts | 273° |
| 2026-04-28 10:33 | 27.06922 | 45.30830 | 40061 ft | 407 kts | 273° |
| 2026-04-28 10:33 | 27.07620 | 45.24531 | 40054 ft | 407 kts | 273° |
| 2026-04-28 10:34 | 27.08321 | 45.18238 | 40058 ft | 406 kts | 273° |
| 2026-04-28 10:34 | 27.09012 | 45.11998 | 40058 ft | 406 kts | 273° |
| 2026-04-28 10:35 | 27.09706 | 45.05717 | 40058 ft | 406 kts | 273° |
| 2026-04-28 10:35 | 27.10397 | 44.99433 | 40078 ft | 405 kts | 273° |
| 2026-04-28 10:36 | 27.11085 | 44.93157 | 40057 ft | 405 kts | 273° |
| 2026-04-28 10:36 | 27.11764 | 44.86935 | 40057 ft | 404 kts | 273° |
| 2026-04-28 10:37 | 27.12444 | 44.80669 | 40054 ft | 404 kts | 273° |
| 2026-04-28 10:37 | 27.13122 | 44.74400 | 40056 ft | 405 kts | 272° |
| 2026-04-28 10:38 | 27.13784 | 44.68134 | 40050 ft | 404 kts | 272° |
| 2026-04-28 10:38 | 27.14443 | 44.61907 | 40048 ft | 404 kts | 272° |
| 2026-04-28 10:39 | 27.15111 | 44.55641 | 40044 ft | 405 kts | 272° |
| 2026-04-28 10:39 | 27.15779 | 44.49360 | 40050 ft | 405 kts | 272° |
| 2026-04-28 10:40 | 27.16447 | 44.43070 | 40046 ft | 405 kts | 272° |
| 2026-04-28 10:40 | 27.17102 | 44.36838 | 40053 ft | 404 kts | 272° |
| 2026-04-28 10:41 | 27.17748 | 44.30581 | 40044 ft | 403 kts | 272° |
| 2026-04-28 10:41 | 27.18394 | 44.24328 | 40050 ft | 403 kts | 272° |
| 2026-04-28 10:42 | 27.19040 | 44.18071 | 40051 ft | 402 kts | 272° |
| 2026-04-28 10:42 | 27.19681 | 44.11841 | 40050 ft | 402 kts | 272° |
| 2026-04-28 10:43 | 27.20315 | 44.05647 | 40053 ft | 402 kts | 272° |
| 2026-04-28 10:43 | 27.20951 | 43.99420 | 40057 ft | 401 kts | 272° |
| 2026-04-28 10:44 | 27.21582 | 43.93207 | 40054 ft | 400 kts | 272° |
| 2026-04-28 10:44 | 27.22210 | 43.86986 | 40053 ft | 400 kts | 272° |
| 2026-04-28 10:45 | 27.22832 | 43.80808 | 40055 ft | 401 kts | 272° |
| 2026-04-28 10:45 | 27.23457 | 43.74574 | 40056 ft | 401 kts | 272° |
| 2026-04-28 10:46 | 27.24073 | 43.68341 | 40054 ft | 401 kts | 272° |
| 2026-04-28 10:46 | 27.24680 | 43.62110 | 40076 ft | 401 kts | 272° |
| 2026-04-28 10:47 | 27.25289 | 43.55924 | 40062 ft | 400 kts | 272° |
| 2026-04-28 10:47 | 27.25901 | 43.49714 | 40066 ft | 400 kts | 272° |
| 2026-04-28 10:48 | 27.26512 | 43.43494 | 40063 ft | 400 kts | 272° |
| 2026-04-28 10:48 | 27.27119 | 43.37287 | 40070 ft | 399 kts | 272° |
| 2026-04-28 10:49 | 27.27719 | 43.31124 | 40070 ft | 399 kts | 272° |
| 2026-04-28 10:49 | 27.28320 | 43.24921 | 40075 ft | 399 kts | 272° |
| 2026-04-28 10:50 | 27.28918 | 43.18724 | 40080 ft | 398 kts | 271° |
| 2026-04-28 10:50 | 27.29511 | 43.12543 | 40077 ft | 398 kts | 271° |
| 2026-04-28 10:51 | 27.30098 | 43.06401 | 40068 ft | 399 kts | 272° |
| 2026-04-28 10:51 | 27.30687 | 43.00191 | 40097 ft | 400 kts | 271° |
| 2026-04-28 10:52 | 27.31276 | 42.93985 | 40087 ft | 398 kts | 271° |
| 2026-04-28 10:52 | 27.31859 | 42.87791 | 40092 ft | 399 kts | 271° |
| 2026-04-28 10:53 | 27.32436 | 42.81631 | 40090 ft | 399 kts | 271° |
| 2026-04-28 10:53 | 27.33006 | 42.75434 | 40093 ft | 398 kts | 271° |
| 2026-04-28 10:54 | 27.33563 | 42.69236 | 40093 ft | 398 kts | 271° |
| 2026-04-28 10:54 | 27.34128 | 42.63036 | 40092 ft | 398 kts | 271° |
| 2026-04-28 10:55 | 27.34696 | 42.56847 | 40101 ft | 397 kts | 271° |
| 2026-04-28 10:55 | 27.35256 | 42.50721 | 40102 ft | 396 kts | 271° |
| 2026-04-28 10:56 | 27.35817 | 42.44555 | 40107 ft | 396 kts | 271° |
| 2026-04-28 10:56 | 27.36367 | 42.38395 | 40116 ft | 395 kts | 271° |
| 2026-04-28 10:57 | 27.36913 | 42.32254 | 40110 ft | 394 kts | 271° |
| 2026-04-28 10:57 | 27.37454 | 42.26156 | 40108 ft | 396 kts | 271° |
| 2026-04-28 10:58 | 27.38001 | 42.19977 | 40116 ft | 397 kts | 271° |
| 2026-04-28 10:58 | 27.38547 | 42.13811 | 40123 ft | 395 kts | 271° |
| 2026-04-28 10:59 | 27.39087 | 42.07665 | 40126 ft | 395 kts | 271° |
| 2026-04-28 10:59 | 27.39620 | 42.01565 | 40133 ft | 395 kts | 271° |
| 2026-04-28 11:00 | 27.40155 | 41.95418 | 40133 ft | 393 kts | 271° |
| 2026-04-28 11:00 | 27.40683 | 41.89309 | 40140 ft | 393 kts | 271° |
| 2026-04-28 11:01 | 27.41209 | 41.83193 | 40145 ft | 392 kts | 271° |
| 2026-04-28 11:01 | 27.41732 | 41.77076 | 40164 ft | 392 kts | 271° |
| 2026-04-28 11:02 | 27.42308 | 41.71021 | 40173 ft | 393 kts | 274° |
| 2026-04-28 11:02 | 27.44139 | 41.65132 | 40168 ft | 409 kts | 290° |
| 2026-04-28 11:03 | 27.47202 | 41.59647 | 40167 ft | 416 kts | 294° |
| 2026-04-28 11:03 | 27.50386 | 41.54200 | 40185 ft | 416 kts | 294° |
| 2026-04-28 11:04 | 27.53481 | 41.48729 | 40169 ft | 413 kts | 293° |
| 2026-04-28 11:04 | 27.56503 | 41.43278 | 40165 ft | 413 kts | 292° |
| 2026-04-28 11:05 | 27.59533 | 41.37779 | 40161 ft | 413 kts | 293° |
| 2026-04-28 11:05 | 27.62565 | 41.32272 | 40163 ft | 413 kts | 292° |
| 2026-04-28 11:06 | 27.65591 | 41.26771 | 40160 ft | 412 kts | 292° |
| 2026-04-28 11:06 | 27.68589 | 41.21314 | 40161 ft | 412 kts | 292° |
| 2026-04-28 11:07 | 27.71602 | 41.15820 | 40159 ft | 412 kts | 292° |
| 2026-04-28 11:07 | 27.74616 | 41.10320 | 40168 ft | 412 kts | 292° |
| 2026-04-28 11:08 | 27.77623 | 41.04824 | 40161 ft | 411 kts | 292° |
| 2026-04-28 11:08 | 27.80591 | 40.99365 | 40163 ft | 411 kts | 292° |
| 2026-04-28 11:09 | 27.83588 | 40.93858 | 40167 ft | 411 kts | 292° |
| 2026-04-28 11:09 | 27.86590 | 40.88350 | 40160 ft | 411 kts | 292° |
| 2026-04-28 11:10 | 27.89586 | 40.82849 | 40167 ft | 411 kts | 292° |
| 2026-04-28 11:10 | 27.92582 | 40.77340 | 40153 ft | 410 kts | 292° |
| 2026-04-28 11:11 | 27.95551 | 40.71873 | 40175 ft | 412 kts | 292° |
| 2026-04-28 11:11 | 27.98548 | 40.66347 | 40169 ft | 412 kts | 292° |
| 2026-04-28 11:12 | 28.01541 | 40.60822 | 40169 ft | 412 kts | 292° |
| 2026-04-28 11:12 | 28.04538 | 40.55285 | 40170 ft | 412 kts | 292° |
| 2026-04-28 11:13 | 28.07508 | 40.49789 | 40173 ft | 412 kts | 292° |
| 2026-04-28 11:13 | 28.10496 | 40.44252 | 40182 ft | 412 kts | 292° |
| 2026-04-28 11:14 | 28.13485 | 40.38706 | 40179 ft | 413 kts | 292° |
| 2026-04-28 11:14 | 28.16470 | 40.33158 | 40179 ft | 413 kts | 292° |
| 2026-04-28 11:15 | 28.19437 | 40.27640 | 40181 ft | 413 kts | 292° |
| 2026-04-28 11:15 | 28.22412 | 40.22078 | 40187 ft | 413 kts | 292° |
| 2026-04-28 11:16 | 28.25388 | 40.16491 | 40186 ft | 414 kts | 292° |
| 2026-04-28 11:16 | 28.28500 | 40.10991 | 40181 ft | 420 kts | 296° |
| 2026-04-28 11:17 | 28.32104 | 40.05759 | 40185 ft | 424 kts | 299° |
| 2026-04-28 11:17 | 28.35824 | 40.00569 | 40192 ft | 424 kts | 299° |
| 2026-04-28 11:18 | 28.39528 | 39.95357 | 40185 ft | 424 kts | 298° |
| 2026-04-28 11:18 | 28.43216 | 39.90126 | 40189 ft | 424 kts | 298° |
| 2026-04-28 11:19 | 28.46895 | 39.84890 | 40194 ft | 424 kts | 298° |
| 2026-04-28 11:19 | 28.50545 | 39.79687 | 40232 ft | 424 kts | 298° |
| 2026-04-28 11:20 | 28.54223 | 39.74438 | 40193 ft | 425 kts | 298° |
| 2026-04-28 11:20 | 28.57906 | 39.69176 | 40193 ft | 425 kts | 298° |
| 2026-04-28 11:21 | 28.61585 | 39.63915 | 40197 ft | 425 kts | 298° |
| 2026-04-28 11:21 | 28.65237 | 39.58685 | 40196 ft | 425 kts | 298° |
| 2026-04-28 11:22 | 28.68910 | 39.53417 | 40198 ft | 425 kts | 298° |
| 2026-04-28 11:22 | 28.72584 | 39.48142 | 40198 ft | 425 kts | 298° |
| 2026-04-28 11:23 | 28.76255 | 39.42865 | 40196 ft | 425 kts | 298° |
| 2026-04-28 11:23 | 28.79896 | 39.37619 | 40195 ft | 425 kts | 298° |
| 2026-04-28 11:24 | 28.83549 | 39.32323 | 40201 ft | 425 kts | 298° |
| 2026-04-28 11:24 | 28.87204 | 39.27032 | 40193 ft | 425 kts | 298° |
| 2026-04-28 11:25 | 28.90870 | 39.21733 | 40193 ft | 425 kts | 298° |
| 2026-04-28 11:25 | 28.94509 | 39.16468 | 40194 ft | 425 kts | 298° |
| 2026-04-28 11:26 | 28.98177 | 39.11152 | 40208 ft | 427 kts | 299° |
| 2026-04-28 11:26 | 29.01853 | 39.05821 | 40192 ft | 427 kts | 299° |
| 2026-04-28 11:27 | 29.05532 | 39.00480 | 40185 ft | 427 kts | 299° |
| 2026-04-28 11:27 | 29.08906 | 38.94977 | 40187 ft | 417 kts | 290° |
| 2026-04-28 11:28 | 29.10844 | 38.88950 | 40210 ft | 401 kts | 275° |
| 2026-04-28 11:28 | 29.11221 | 38.82641 | 40185 ft | 397 kts | 266° |
| 2026-04-28 11:29 | 29.11095 | 38.76323 | 40186 ft | 397 kts | 265° |
| 2026-04-28 11:29 | 29.10992 | 38.70006 | 40179 ft | 397 kts | 266° |
| 2026-04-28 11:30 | 29.10938 | 38.63744 | 40186 ft | 396 kts | 266° |
| 2026-04-28 11:30 | 29.10882 | 38.54298 | 40186 ft | 396 kts | 266° |
| 2026-04-28 11:31 | 29.10844 | 38.48002 | 40174 ft | 396 kts | 266° |
| 2026-04-28 11:31 | 29.10802 | 38.41746 | 40171 ft | 396 kts | 266° |
| 2026-04-28 11:32 | 29.10753 | 38.35445 | 40179 ft | 396 kts | 266° |
| 2026-04-28 11:32 | 29.10695 | 38.29144 | 40173 ft | 396 kts | 266° |
| 2026-04-28 11:33 | 29.10640 | 38.22850 | 40165 ft | 396 kts | 266° |
| 2026-04-28 11:33 | 29.10585 | 38.16597 | 40181 ft | 397 kts | 266° |
| 2026-04-28 11:34 | 29.10528 | 38.10273 | 40167 ft | 398 kts | 266° |
| 2026-04-28 11:34 | 29.10468 | 38.03944 | 40160 ft | 398 kts | 266° |
| 2026-04-28 11:35 | 29.10405 | 37.97631 | 40146 ft | 396 kts | 266° |
| 2026-04-28 11:35 | 29.10340 | 37.91385 | 40162 ft | 396 kts | 266° |
| 2026-04-28 11:36 | 29.10270 | 37.85081 | 40151 ft | 396 kts | 266° |
| 2026-04-28 11:36 | 29.10199 | 37.78784 | 40150 ft | 396 kts | 266° |
| 2026-04-28 11:37 | 29.10124 | 37.72479 | 40154 ft | 396 kts | 266° |
| 2026-04-28 11:37 | 29.10046 | 37.66165 | 40155 ft | 398 kts | 267° |
| 2026-04-28 11:38 | 29.09965 | 37.59888 | 40148 ft | 398 kts | 267° |
| 2026-04-28 11:38 | 29.09882 | 37.53569 | 40149 ft | 397 kts | 267° |
| 2026-04-28 11:39 | 29.09803 | 37.47248 | 40167 ft | 398 kts | 267° |
| 2026-04-28 11:39 | 29.09745 | 37.40917 | 40150 ft | 399 kts | 267° |
| 2026-04-28 11:40 | 29.09697 | 37.34617 | 40149 ft | 399 kts | 267° |
| 2026-04-28 11:40 | 29.09648 | 37.28297 | 40145 ft | 397 kts | 267° |
| 2026-04-28 11:41 | 29.09596 | 37.21992 | 40160 ft | 396 kts | 267° |
| 2026-04-28 11:41 | 29.09541 | 37.15687 | 40147 ft | 397 kts | 268° |
| 2026-04-28 11:42 | 29.09483 | 37.09371 | 40145 ft | 397 kts | 267° |
| 2026-04-28 11:42 | 29.09423 | 37.03100 | 40146 ft | 397 kts | 267° |
| 2026-04-28 11:43 | 29.09359 | 36.96788 | 40156 ft | 398 kts | 267° |
| 2026-04-28 11:43 | 29.09292 | 36.90467 | 40140 ft | 398 kts | 268° |
| 2026-04-28 11:44 | 29.09222 | 36.84142 | 40134 ft | 398 kts | 267° |
| 2026-04-28 11:44 | 29.09150 | 36.77850 | 40133 ft | 398 kts | 267° |
| 2026-04-28 11:45 | 29.09074 | 36.71524 | 40141 ft | 399 kts | 268° |
| 2026-04-28 11:45 | 29.08995 | 36.65169 | 40138 ft | 400 kts | 268° |
| 2026-04-28 11:46 | 29.08913 | 36.58838 | 40129 ft | 397 kts | 268° |
| 2026-04-28 11:46 | 29.08815 | 36.52576 | 40129 ft | 397 kts | 267° |
| 2026-04-28 11:47 | 29.08690 | 36.46261 | 40137 ft | 397 kts | 267° |
| 2026-04-28 11:47 | 29.08522 | 36.39952 | 40127 ft | 398 kts | 267° |
| 2026-04-28 11:48 | 29.08347 | 36.33631 | 40124 ft | 398 kts | 267° |
| 2026-04-28 11:48 | 29.08175 | 36.27354 | 40124 ft | 398 kts | 267° |
| 2026-04-28 11:49 | 29.08000 | 36.21036 | 40125 ft | 399 kts | 267° |
| 2026-04-28 11:49 | 29.07822 | 36.14696 | 40122 ft | 399 kts | 267° |
| 2026-04-28 11:50 | 29.07641 | 36.08353 | 40121 ft | 399 kts | 267° |
| 2026-04-28 11:50 | 29.07457 | 36.02014 | 40121 ft | 399 kts | 267° |
| 2026-04-28 11:51 | 29.07272 | 35.95720 | 40118 ft | 399 kts | 267° |
| 2026-04-28 11:51 | 29.07082 | 35.89401 | 40109 ft | 396 kts | 267° |
| 2026-04-28 11:52 | 29.06891 | 35.83114 | 40120 ft | 395 kts | 267° |
| 2026-04-28 11:52 | 29.06697 | 35.76834 | 40121 ft | 395 kts | 267° |
| 2026-04-28 11:53 | 29.06501 | 35.70592 | 40122 ft | 396 kts | 267° |
| 2026-04-28 11:53 | 29.06301 | 35.64309 | 40116 ft | 396 kts | 267° |
| 2026-04-28 11:54 | 29.06098 | 35.58017 | 40117 ft | 396 kts | 267° |
| 2026-04-28 11:54 | 29.05885 | 35.51723 | 40119 ft | 396 kts | 267° |
| 2026-04-28 11:55 | 29.05655 | 35.45423 | 40111 ft | 397 kts | 267° |
| 2026-04-28 11:55 | 29.05435 | 35.39171 | 40110 ft | 397 kts | 267° |
| 2026-04-28 11:56 | 29.05217 | 35.32867 | 40118 ft | 397 kts | 267° |
| 2026-04-28 11:56 | 29.04999 | 35.26570 | 40118 ft | 397 kts | 266° |
| 2026-04-28 11:57 | 29.04778 | 35.20310 | 40099 ft | 396 kts | 267° |
| 2026-04-28 11:57 | 29.04554 | 35.14028 | 40098 ft | 395 kts | 267° |
| 2026-04-28 11:58 | 29.04329 | 35.07765 | 40100 ft | 395 kts | 267° |
| 2026-04-28 11:58 | 29.04100 | 35.01495 | 40102 ft | 395 kts | 267° |
| 2026-04-28 11:59 | 29.03868 | 34.95221 | 40105 ft | 396 kts | 267° |
| 2026-04-28 11:59 | 29.03634 | 34.88979 | 40102 ft | 396 kts | 267° |
| 2026-04-28 12:00 | 29.03430 | 34.82698 | 40109 ft | 396 kts | 268° |
| 2026-04-28 12:00 | 29.03314 | 34.76408 | 40110 ft | 396 kts | 268° |
| 2026-04-28 12:01 | 29.03232 | 34.70125 | 40111 ft | 396 kts | 269° |
| 2026-04-28 12:01 | 29.03326 | 34.63873 | 40103 ft | 397 kts | 274° |
| 2026-04-28 12:02 | 29.04442 | 34.57676 | 40118 ft | 402 kts | 285° |
| 2026-04-28 12:02 | 29.06888 | 34.51882 | 40120 ft | 411 kts | 296° |
| 2026-04-28 12:03 | 29.10567 | 34.46786 | 40149 ft | 423 kts | 309° |
| 2026-04-28 12:03 | 29.15334 | 34.42743 | 40123 ft | 438 kts | 321° |
| 2026-04-28 12:04 | 29.21055 | 34.39992 | 40134 ft | 454 kts | 332° |
| 2026-04-28 12:04 | 29.27146 | 34.37951 | 40132 ft | 457 kts | 334° |
| 2026-04-28 12:05 | 29.33250 | 34.35943 | 40144 ft | 456 kts | 334° |
| 2026-04-28 12:05 | 29.39289 | 34.33874 | 40136 ft | 456 kts | 333° |
| 2026-04-28 12:06 | 29.45348 | 34.31759 | 40146 ft | 455 kts | 333° |
| 2026-04-28 12:06 | 29.51380 | 34.29564 | 40143 ft | 452 kts | 330° |
| 2026-04-28 12:07 | 29.56912 | 34.26453 | 40148 ft | 438 kts | 320° |
| 2026-04-28 12:07 | 29.62175 | 34.22973 | 40151 ft | 442 kts | 322° |
| 2026-04-28 12:08 | 29.67578 | 34.19572 | 40154 ft | 442 kts | 323° |
| 2026-04-28 12:08 | 29.73002 | 34.16234 | 40152 ft | 442 kts | 323° |
| 2026-04-28 12:09 | 29.78425 | 34.12905 | 40152 ft | 442 kts | 323° |
| 2026-04-28 12:09 | 29.83816 | 34.09589 | 40155 ft | 442 kts | 323° |
| 2026-04-28 12:10 | 29.89243 | 34.06243 | 40170 ft | 443 kts | 323° |
| 2026-04-28 12:10 | 29.94684 | 34.02884 | 40154 ft | 444 kts | 323° |
| 2026-04-28 12:11 | 30.00130 | 33.99519 | 40159 ft | 444 kts | 323° |
| 2026-04-28 12:11 | 30.05582 | 33.96147 | 40159 ft | 444 kts | 323° |
| 2026-04-28 12:12 | 30.10983 | 33.92801 | 40156 ft | 444 kts | 323° |
| 2026-04-28 12:12 | 30.16428 | 33.89424 | 40181 ft | 444 kts | 323° |
| 2026-04-28 12:13 | 30.21882 | 33.86034 | 40163 ft | 446 kts | 323° |
| 2026-04-28 12:13 | 30.27343 | 33.82639 | 40162 ft | 446 kts | 323° |
| 2026-04-28 12:14 | 30.32800 | 33.79235 | 40165 ft | 446 kts | 323° |
| 2026-04-28 12:14 | 30.38222 | 33.75842 | 40165 ft | 446 kts | 323° |
| 2026-04-28 12:15 | 30.43678 | 33.72431 | 40168 ft | 446 kts | 323° |
| 2026-04-28 12:15 | 30.49145 | 33.69012 | 40175 ft | 447 kts | 324° |
| 2026-04-28 12:16 | 30.54578 | 33.65612 | 40172 ft | 447 kts | 324° |
| 2026-04-28 12:16 | 30.60043 | 33.62188 | 40173 ft | 447 kts | 324° |
| 2026-04-28 12:17 | 30.65507 | 33.58759 | 40173 ft | 447 kts | 324° |
| 2026-04-28 12:17 | 30.70974 | 33.55325 | 40180 ft | 446 kts | 324° |
| 2026-04-28 12:18 | 30.76405 | 33.51907 | 40186 ft | 448 kts | 324° |
| 2026-04-28 12:18 | 30.81887 | 33.48453 | 40184 ft | 449 kts | 324° |
| 2026-04-28 12:19 | 30.87374 | 33.44992 | 40190 ft | 449 kts | 324° |
| 2026-04-28 12:19 | 30.92864 | 33.41526 | 40192 ft | 448 kts | 324° |
| 2026-04-28 12:20 | 30.98351 | 33.38056 | 40193 ft | 448 kts | 324° |
| 2026-04-28 12:20 | 31.03793 | 33.34608 | 40207 ft | 449 kts | 324° |
| 2026-04-28 12:21 | 31.09277 | 33.31115 | 40197 ft | 449 kts | 324° |
| 2026-04-28 12:21 | 31.14763 | 33.27624 | 40195 ft | 449 kts | 324° |
| 2026-04-28 12:22 | 31.20218 | 33.24154 | 40198 ft | 449 kts | 324° |
| 2026-04-28 12:22 | 31.25708 | 33.20659 | 40195 ft | 449 kts | 324° |
| 2026-04-28 12:23 | 31.31196 | 33.17160 | 40195 ft | 449 kts | 324° |
| 2026-04-28 12:23 | 31.36963 | 33.14196 | 40196 ft | 462 kts | 337° |
| 2026-04-28 12:24 | 31.40158 | 33.13487 | 40193 ft | 473 kts | 346° |
| 2026-04-28 12:24 | 31.43469 | 33.13282 | 40194 ft | 480 kts | 351° |
| 2026-04-28 12:24 | 31.50117 | 33.13319 | 40192 ft | 481 kts | 352° |
| 2026-04-28 12:25 | 31.56789 | 33.13209 | 40200 ft | 479 kts | 350° |
| 2026-04-28 12:25 | 31.63456 | 33.12914 | 40187 ft | 478 kts | 349° |
| 2026-04-28 12:26 | 31.70102 | 33.12566 | 40189 ft | 478 kts | 349° |
| 2026-04-28 12:26 | 31.76652 | 33.11714 | 40178 ft | 467 kts | 339° |
| 2026-04-28 12:27 | 31.82537 | 33.09052 | 40187 ft | 450 kts | 323° |
| 2026-04-28 12:27 | 31.87417 | 33.04638 | 40175 ft | 438 kts | 309° |
| 2026-04-28 12:28 | 31.91556 | 32.99401 | 40176 ft | 436 kts | 307° |
| 2026-04-28 12:28 | 31.95613 | 32.94094 | 40171 ft | 437 kts | 307° |
| 2026-04-28 12:29 | 32.01777 | 32.86247 | 40174 ft | 437 kts | 308° |
| 2026-04-28 12:30 | 32.05929 | 32.81013 | 40172 ft | 437 kts | 308° |
| 2026-04-28 12:30 | 32.10081 | 32.75774 | 40173 ft | 437 kts | 308° |
| 2026-04-28 12:31 | 32.14199 | 32.70568 | 40198 ft | 437 kts | 308° |
| 2026-04-28 12:31 | 32.18345 | 32.65318 | 40175 ft | 438 kts | 308° |
| 2026-04-28 12:32 | 32.22503 | 32.60046 | 40176 ft | 438 kts | 308° |
| 2026-04-28 12:32 | 32.26651 | 32.54779 | 40173 ft | 438 kts | 308° |
| 2026-04-28 12:33 | 32.30800 | 32.49502 | 40173 ft | 438 kts | 308° |
| 2026-04-28 12:33 | 32.34916 | 32.44262 | 40170 ft | 438 kts | 308° |
| 2026-04-28 12:34 | 32.39062 | 32.38974 | 40172 ft | 438 kts | 308° |
| 2026-04-28 12:34 | 32.43201 | 32.33687 | 40180 ft | 438 kts | 308° |
| 2026-04-28 12:35 | 32.47324 | 32.28388 | 40164 ft | 437 kts | 308° |
| 2026-04-28 12:35 | 32.51416 | 32.23123 | 40184 ft | 438 kts | 308° |
| 2026-04-28 12:36 | 32.55587 | 32.17857 | 40175 ft | 440 kts | 310° |
| 2026-04-28 12:36 | 32.60016 | 32.12827 | 40175 ft | 441 kts | 312° |
| 2026-04-28 12:37 | 32.64513 | 32.07873 | 40171 ft | 441 kts | 312° |
| 2026-04-28 12:37 | 32.69000 | 32.02906 | 40171 ft | 441 kts | 312° |
| 2026-04-28 12:38 | 32.73439 | 31.97962 | 40173 ft | 441 kts | 311° |
| 2026-04-28 12:38 | 32.77908 | 31.92970 | 40169 ft | 441 kts | 311° |
| 2026-04-28 12:39 | 32.82372 | 31.87976 | 40170 ft | 441 kts | 311° |
| 2026-04-28 12:39 | 32.86834 | 31.82976 | 40170 ft | 442 kts | 312° |
| 2026-04-28 12:40 | 32.91278 | 31.77990 | 40175 ft | 442 kts | 312° |
| 2026-04-28 12:40 | 32.95746 | 31.72971 | 40170 ft | 442 kts | 312° |
| 2026-04-28 12:41 | 32.99460 | 31.68792 | 40168 ft | 442 kts | 312° |
| 2026-04-28 12:41 | 33.03927 | 31.63760 | 40167 ft | 442 kts | 312° |
| 2026-04-28 12:42 | 33.09112 | 31.57910 | 40169 ft | 442 kts | 312° |
| 2026-04-28 12:42 | 33.13572 | 31.52870 | 40167 ft | 442 kts | 312° |
| 2026-04-28 12:43 | 33.17272 | 31.48670 | 40171 ft | 441 kts | 311° |
| 2026-04-28 12:43 | 33.21721 | 31.43601 | 40174 ft | 443 kts | 312° |
| 2026-04-28 12:44 | 33.26180 | 31.38529 | 40168 ft | 443 kts | 312° |
| 2026-04-28 12:44 | 33.31372 | 31.32627 | 40168 ft | 443 kts | 312° |
| 2026-04-28 12:45 | 33.35087 | 31.28398 | 40166 ft | 443 kts | 312° |
| 2026-04-28 12:45 | 33.39547 | 31.23315 | 40171 ft | 443 kts | 312° |
| 2026-04-28 12:46 | 33.44005 | 31.18226 | 40169 ft | 443 kts | 312° |
| 2026-04-28 12:46 | 33.48456 | 31.13137 | 40168 ft | 443 kts | 312° |
| 2026-04-28 12:47 | 33.52909 | 31.08037 | 40169 ft | 443 kts | 312° |
| 2026-04-28 12:47 | 33.57336 | 31.02960 | 40165 ft | 444 kts | 312° |
| 2026-04-28 12:48 | 33.61794 | 30.97841 | 40167 ft | 444 kts | 312° |
| 2026-04-28 12:48 | 33.66254 | 30.92711 | 40161 ft | 444 kts | 312° |
| 2026-04-28 12:49 | 33.70708 | 30.87580 | 40159 ft | 444 kts | 312° |
| 2026-04-28 12:49 | 33.75162 | 30.82441 | 40159 ft | 444 kts | 312° |
| 2026-04-28 12:50 | 33.79567 | 30.77323 | 40159 ft | 444 kts | 312° |
| 2026-04-28 12:50 | 33.84004 | 30.72168 | 40159 ft | 444 kts | 312° |
| 2026-04-28 12:51 | 33.88452 | 30.67007 | 40162 ft | 444 kts | 312° |
| 2026-04-28 12:51 | 33.92873 | 30.61876 | 40157 ft | 444 kts | 312° |
| 2026-04-28 12:52 | 33.97321 | 30.56705 | 40159 ft | 444 kts | 312° |
| 2026-04-28 12:52 | 34.01767 | 30.51529 | 40160 ft | 444 kts | 312° |
| 2026-04-28 12:53 | 34.06210 | 30.46348 | 40154 ft | 444 kts | 312° |
| 2026-04-28 12:53 | 34.10617 | 30.41201 | 40154 ft | 444 kts | 312° |
| 2026-04-28 12:54 | 34.15055 | 30.36010 | 40141 ft | 444 kts | 312° |
| 2026-04-28 12:54 | 34.19492 | 30.30811 | 40153 ft | 444 kts | 312° |
| 2026-04-28 12:55 | 34.23926 | 30.25608 | 40148 ft | 444 kts | 312° |
| 2026-04-28 12:55 | 34.28320 | 30.20445 | 40147 ft | 444 kts | 312° |
| 2026-04-28 12:56 | 34.32761 | 30.15218 | 40145 ft | 444 kts | 312° |
| 2026-04-28 12:56 | 34.37182 | 30.09993 | 40157 ft | 444 kts | 312° |
| 2026-04-28 12:57 | 34.41776 | 30.04966 | 40145 ft | 447 kts | 317° |
| 2026-04-28 12:57 | 34.46706 | 30.00365 | 40145 ft | 448 kts | 318° |
| 2026-04-28 12:58 | 34.51598 | 29.95787 | 40143 ft | 447 kts | 317° |
| 2026-04-28 12:58 | 34.56484 | 29.91111 | 40137 ft | 447 kts | 317° |
| 2026-04-28 12:59 | 34.61350 | 29.86408 | 40141 ft | 447 kts | 317° |
| 2026-04-28 12:59 | 34.66206 | 29.81702 | 40144 ft | 447 kts | 317° |
| 2026-04-28 13:00 | 34.71030 | 29.77022 | 40142 ft | 446 kts | 317° |
| 2026-04-28 13:00 | 34.75878 | 29.72312 | 40139 ft | 446 kts | 317° |
| 2026-04-28 13:01 | 34.80721 | 29.67601 | 40152 ft | 446 kts | 317° |
| 2026-04-28 13:01 | 34.85572 | 29.62873 | 40140 ft | 447 kts | 317° |
| 2026-04-28 13:02 | 34.90424 | 29.58139 | 40141 ft | 447 kts | 317° |
| 2026-04-28 13:02 | 34.95273 | 29.53400 | 40147 ft | 447 kts | 317° |
| 2026-04-28 13:03 | 35.00124 | 29.48651 | 40136 ft | 447 kts | 317° |
| 2026-04-28 13:03 | 35.04927 | 29.43929 | 40132 ft | 447 kts | 317° |
| 2026-04-28 13:04 | 35.09762 | 29.39156 | 40132 ft | 447 kts | 317° |
| 2026-04-28 13:04 | 35.14601 | 29.34387 | 40132 ft | 447 kts | 317° |
| 2026-04-28 13:05 | 35.19441 | 29.29619 | 40131 ft | 447 kts | 317° |
| 2026-04-28 13:05 | 35.24280 | 29.24844 | 40140 ft | 447 kts | 317° |
| 2026-04-28 13:06 | 35.29082 | 29.20099 | 40130 ft | 447 kts | 317° |
| 2026-04-28 13:06 | 35.29904 | 29.19286 | 40126 ft | 447 kts | 317° |